Time;durP1;ratioP1;P1;durP2;ratioP2;P2;SDS_P1;SDS_P2;PMS_P1;PMS_P2;Temp;Humidity;BMP_temperature;BMP_pressure;BME280_temperature;BME280_humidity;BME280_pressure;Samples;Min_cycle;Max_cycle;Signal;HPM_P1;HPM_P2
2024/04/07 00:00:48;;;;;;;47.78;7.85;;;;;;;;;;5051039;28;20037;-78
2024/04/07 00:03:17;;;;;;;49.17;6.93;;;;;;;;;;5034128;28;20064;-78
2024/04/07 00:05:44;;;;;;;60.90;7.55;;;;;;;;;;5018666;28;20041;-78
2024/04/07 00:08:10;;;;;;;52.83;7.03;;;;;;;;;;5050754;28;20041;-77
2024/04/07 00:10:37;;;;;;;47.47;6.43;;;;;;;;;;5001823;28;20045;-77
2024/04/07 00:13:05;;;;;;;59.95;7.30;;;;;;;;;;5034716;28;20476;-77
2024/04/07 00:15:31;;;;;;;51.20;7.03;;;;;;;;;;5020527;28;20365;-77
2024/04/07 00:17:57;;;;;;;50.05;6.82;;;;;;;;;;5054841;28;20043;-77
2024/04/07 00:20:23;;;;;;;60.28;8.60;;;;;;;;;;5038207;28;20040;-77
2024/04/07 00:22:48;;;;;;;48.20;5.50;;;;;;;;;;5038589;28;20041;-77
2024/04/07 00:25:16;;;;;;;57.45;7.28;;;;;;;;;;5037777;28;20540;-78
2024/04/07 00:27:43;;;;;;;50.03;5.97;;;;;;;;;;5028677;28;20059;-78
2024/04/07 00:30:09;;;;;;;43.85;6.50;;;;;;;;;;5037701;28;20051;-77
2024/04/07 00:32:35;;;;;;;69.90;6.72;;;;;;;;;;5038293;28;20045;-77
2024/04/07 00:35:01;;;;;;;56.00;7.55;;;;;;;;;;5038193;28;20041;-78
2024/04/07 00:37:28;;;;;;;67.78;6.75;;;;;;;;;;5037831;28;20063;-78
2024/04/07 00:39:57;;;;;;;58.75;7.57;;;;;;;;;;5038242;28;20044;-78
2024/04/07 00:42:23;;;;;;;54.95;7.13;;;;;;;;;;5037645;28;20041;-77
2024/04/07 00:44:49;;;;;;;57.53;7.85;;;;;;;;;;5037967;28;20502;-78
2024/04/07 00:47:15;;;;;;;58.10;6.93;;;;;;;;;;5020988;28;20587;-78
2024/04/07 00:49:43;;;;;;;57.63;7.85;;;;;;;;;;5038141;28;20477;-78
2024/04/07 00:52:12;;;;;;;59.38;6.72;;;;;;;;;;5037277;28;20102;-77
2024/04/07 00:54:41;;;;;;;58.28;7.38;;;;;;;;;;5021160;28;20097;-78
2024/04/07 00:57:10;;;;;;;60.35;8.75;;;;;;;;;;5037276;28;20041;-78
2024/04/07 00:59:36;;;;;;;61.00;7.53;;;;;;;;;;5021253;28;20045;-78
2024/04/07 01:02:04;;;;;;;56.95;6.78;;;;;;;;;;5021181;28;20047;-77
2024/04/07 01:04:30;;;;;;;68.63;8.70;;;;;;;;;;5037636;28;20073;-78
2024/04/07 01:06:56;;;;;;;50.13;7.60;;;;;;;;;;5021088;28;20049;-77
2024/04/07 01:09:22;;;;;;;56.25;6.13;;;;;;;;;;5037206;28;20482;-77
2024/04/07 01:11:47;;;;;;;66.78;6.97;;;;;;;;;;5021004;28;20045;-78
2024/04/07 01:14:13;;;;;;;59.35;7.38;;;;;;;;;;5037050;28;20486;-78
2024/04/07 01:16:39;;;;;;;54.17;6.55;;;;;;;;;;5037232;28;20474;-77
2024/04/07 01:19:04;;;;;;;57.95;6.78;;;;;;;;;;5037086;28;20041;-76
2024/04/07 01:21:30;;;;;;;47.20;5.75;;;;;;;;;;5037365;28;20492;-78
2024/04/07 01:23:56;;;;;;;58.35;7.53;;;;;;;;;;5020597;28;20040;-77
2024/04/07 01:26:24;;;;;;;59.17;7.30;;;;;;;;;;5026012;28;20406;-78
2024/04/07 01:28:50;;;;;;;60.10;5.85;;;;;;;;;;5037058;28;20048;-78
2024/04/07 01:31:16;;;;;;;59.67;7.43;;;;;;;;;;5036596;28;20067;-78
2024/04/07 01:33:42;;;;;;;52.50;7.18;;;;;;;;;;5037095;28;20045;-77
2024/04/07 01:36:08;;;;;;;61.28;6.78;;;;;;;;;;5020080;28;20098;-78
2024/04/07 01:38:34;;;;;;;45.78;6.88;;;;;;;;;;5037094;28;20439;-78
2024/04/07 01:41:00;;;;;;;51.35;6.57;;;;;;;;;;5037096;28;20127;-78
2024/04/07 01:43:25;;;;;;;42.72;6.35;;;;;;;;;;5053108;28;20048;-78
2024/04/07 01:45:51;;;;;;;40.83;6.32;;;;;;;;;;5036703;28;20136;-78
2024/04/07 01:48:17;;;;;;;63.03;6.88;;;;;;;;;;5036350;28;20391;-77
2024/04/07 01:50:43;;;;;;;42.33;5.95;;;;;;;;;;5053559;28;20438;-78
2024/04/07 01:53:08;;;;;;;45.90;6.05;;;;;;;;;;5036289;28;20427;-78
2024/04/07 01:55:34;;;;;;;58.67;6.35;;;;;;;;;;5020175;28;20037;-78
2024/04/07 01:58:01;;;;;;;45.88;6.28;;;;;;;;;;5036504;28;20045;-77
2024/04/07 02:00:27;;;;;;;45.90;6.10;;;;;;;;;;5035847;28;20135;-78
2024/04/07 02:02:53;;;;;;;51.42;7.25;;;;;;;;;;5036701;28;20391;-78
2024/04/07 02:05:18;;;;;;;59.67;6.75;;;;;;;;;;5035905;28;20045;-77
2024/04/07 02:07:44;;;;;;;52.45;6.50;;;;;;;;;;5036374;28;20048;-78
2024/04/07 02:10:10;;;;;;;57.78;6.05;;;;;;;;;;5036012;28;20045;-77
2024/04/07 02:12:36;;;;;;;51.78;6.07;;;;;;;;;;5019943;28;20059;-77
2024/04/07 02:15:04;;;;;;;50.05;6.85;;;;;;;;;;5036277;28;20094;-78
2024/04/07 02:17:33;;;;;;;51.72;5.43;;;;;;;;;;5036144;28;20045;-78
2024/04/07 02:19:59;;;;;;;53.15;6.60;;;;;;;;;;5036386;28;20471;-78
2024/04/07 02:22:25;;;;;;;59.13;6.72;;;;;;;;;;5019353;28;20106;-78
2024/04/07 02:24:50;;;;;;;43.75;7.22;;;;;;;;;;5036085;28;20045;-78
2024/04/07 02:27:17;;;;;;;55.53;6.28;;;;;;;;;;5043928;28;20040;-77
2024/04/07 02:29:44;;;;;;;59.00;6.40;;;;;;;;;;5019564;28;20037;-77
2024/04/07 02:32:10;;;;;;;48.85;5.53;;;;;;;;;;5035622;28;20047;-77
2024/04/07 02:34:36;;;;;;;45.72;5.88;;;;;;;;;;5035598;28;20044;-78
2024/04/07 02:37:01;;;;;;;54.00;6.18;;;;;;;;;;5035463;28;20045;-78
2024/04/07 02:39:27;;;;;;;46.83;6.43;;;;;;;;;;5035386;28;20147;-77
2024/04/07 02:41:53;;;;;;;45.47;5.93;;;;;;;;;;5036039;28;20041;-77
2024/04/07 02:48:03;;;;;;;49.95;6.72;;;;;;;;;;5035461;28;20128;-78
2024/04/07 02:49:49;;;;;;;35.78;5.22;;;;;;;;;;5035604;28;20041;-77
2024/04/07 02:52:15;;;;;;;45.95;5.45;;;;;;;;;;5002470;28;20055;-78
2024/04/07 02:54:40;;;;;;;42.50;6.68;;;;;;;;;;5035402;28;20070;-78
2024/04/07 02:57:06;;;;;;;51.20;6.47;;;;;;;;;;5051762;28;20036;-77
2024/04/07 02:59:32;;;;;;;49.08;6.43;;;;;;;;;;5035396;28;20174;-78
2024/04/07 03:01:57;;;;;;;50.00;6.30;;;;;;;;;;5035442;28;20103;-77
2024/04/07 03:04:23;;;;;;;48.38;6.20;;;;;;;;;;5035261;28;20059;-78
2024/04/07 03:06:51;;;;;;;47.22;6.22;;;;;;;;;;5035413;28;20049;-78
2024/04/07 03:09:17;;;;;;;46.37;5.13;;;;;;;;;;5034739;28;20043;-78
2024/04/07 03:11:43;;;;;;;38.00;5.25;;;;;;;;;;5035525;28;20044;-78
2024/04/07 03:14:08;;;;;;;49.55;5.80;;;;;;;;;;5034751;28;20040;-77
2024/04/07 03:16:34;;;;;;;40.50;5.22;;;;;;;;;;5018714;28;20052;-78
2024/04/07 03:19:00;;;;;;;51.03;6.07;;;;;;;;;;5035207;28;20468;-77
2024/04/07 03:21:26;;;;;;;51.65;7.15;;;;;;;;;;5051335;28;20382;-77
2024/04/07 03:23:51;;;;;;;29.30;5.05;;;;;;;;;;5018856;28;20048;-78
2024/04/07 03:26:17;;;;;;;47.47;5.45;;;;;;;;;;5041296;28;20037;-77
2024/04/07 03:28:43;;;;;;;43.92;5.13;;;;;;;;;;5035028;28;20423;-78
2024/04/07 03:31:09;;;;;;;42.58;5.72;;;;;;;;;;5034520;28;20403;-77
2024/04/07 03:33:36;;;;;;;45.88;5.70;;;;;;;;;;5035004;28;20044;-78
2024/04/07 03:36:05;;;;;;;40.47;5.03;;;;;;;;;;5018516;28;20040;-78
2024/04/07 03:38:31;;;;;;;38.83;4.63;;;;;;;;;;5035102;28;20045;-78
2024/04/07 03:40:57;;;;;;;38.38;6.35;;;;;;;;;;5035210;28;20047;-77
2024/04/07 03:43:22;;;;;;;40.38;5.15;;;;;;;;;;5034433;28;20468;-78
2024/04/07 03:45:58;;;;;;;48.67;5.80;;;;;;;;;;5051400;28;20032;-78
2024/04/07 03:48:23;;;;;;;44.53;5.57;;;;;;;;;;5018373;28;20052;-78
2024/04/07 03:50:49;;;;;;;44.90;5.53;;;;;;;;;;5022051;28;20055;-78
2024/04/07 03:53:15;;;;;;;43.45;5.82;;;;;;;;;;5021946;28;20049;-78
2024/04/07 03:55:41;;;;;;;43.45;5.63;;;;;;;;;;5038811;28;20124;-77
2024/04/07 03:58:06;;;;;;;34.97;5.05;;;;;;;;;;5038644;28;20048;-78
2024/04/07 04:00:35;;;;;;;41.38;6.38;;;;;;;;;;5038552;28;20147;-78
2024/04/07 04:03:02;;;;;;;;;;;;;;;;;;5039342;28;20098;-78
2024/04/07 04:05:27;;;;;;;40.95;5.30;;;;;;;;;;5021890;28;19921;-77
2024/04/07 04:07:53;;;;;;;37.58;5.22;;;;;;;;;;5038706;28;20122;-78
2024/04/07 04:10:19;;;;;;;46.80;6.47;;;;;;;;;;5038366;28;20059;-78
2024/04/07 04:12:45;;;;;;;55.53;8.18;;;;;;;;;;5038601;28;20475;-77
2024/04/07 04:15:10;;;;;;;44.65;7.45;;;;;;;;;;5038037;28;20044;-78
2024/04/07 04:17:36;;;;;;;46.60;6.22;;;;;;;;;;5038433;28;20492;-77
2024/04/07 04:20:03;;;;;;;58.72;9.25;;;;;;;;;;5038601;28;20440;-78
2024/04/07 04:22:29;;;;;;;48.60;6.03;;;;;;;;;;5021901;28;20033;-78
2024/04/07 04:24:59;;;;;;;48.55;6.10;;;;;;;;;;5038263;28;20041;-77
2024/04/07 04:27:25;;;;;;;55.95;7.22;;;;;;;;;;5046419;28;20403;-77
2024/04/07 04:29:51;;;;;;;52.03;7.43;;;;;;;;;;5038325;28;20041;-78
2024/04/07 04:32:17;;;;;;;53.58;6.65;;;;;;;;;;5037996;28;20490;-77
2024/04/07 04:34:43;;;;;;;54.42;6.47;;;;;;;;;;5038256;28;20040;-78
2024/04/07 04:37:09;;;;;;;49.05;8.13;;;;;;;;;;5020865;28;20391;-78
2024/04/07 04:39:34;;;;;;;52.33;7.80;;;;;;;;;;5038329;28;20403;-78
2024/04/07 04:42:00;;;;;;;57.08;7.25;;;;;;;;;;5054559;28;20045;-78
2024/04/07 04:44:27;;;;;;;45.50;6.63;;;;;;;;;;5020955;28;20098;-77
2024/04/07 04:46:53;;;;;;;40.33;5.60;;;;;;;;;;5037916;28;20489;-78
2024/04/07 04:49:19;;;;;;;51.63;6.30;;;;;;;;;;5054031;28;20040;-78
2024/04/07 04:51:46;;;;;;;41.30;6.95;;;;;;;;;;5037940;28;20041;-78
2024/04/07 04:54:12;;;;;;;53.20;6.95;;;;;;;;;;5053828;28;20041;-77
2024/04/07 04:56:38;;;;;;;40.38;6.45;;;;;;;;;;5021283;28;20506;-77
2024/04/07 04:59:05;;;;;;;49.55;5.82;;;;;;;;;;5037184;28;20041;-77
2024/04/07 05:01:31;;;;;;;51.85;6.72;;;;;;;;;;5053960;28;20049;-77
2024/04/07 05:03:57;;;;;;;56.40;6.53;;;;;;;;;;5037804;28;20051;-77
2024/04/07 05:06:24;;;;;;;61.05;7.70;;;;;;;;;;5037011;28;20041;-78
2024/04/07 05:08:50;;;;;;;58.20;6.47;;;;;;;;;;5037689;28;20545;-78
2024/04/07 05:11:17;;;;;;;63.25;6.80;;;;;;;;;;5004255;28;20042;-78
2024/04/07 05:13:43;;;;;;;57.05;7.07;;;;;;;;;;5021063;28;20049;-78
2024/04/07 05:16:09;;;;;;;67.03;7.15;;;;;;;;;;5020639;28;20060;-77
2024/04/07 05:18:35;;;;;;;55.17;6.68;;;;;;;;;;5037402;28;20049;-78
2024/04/07 05:21:03;;;;;;;51.10;6.60;;;;;;;;;;5037447;28;20049;-78
2024/04/07 05:23:29;;;;;;;53.28;7.68;;;;;;;;;;5020580;28;20097;-77
2024/04/07 05:25:55;;;;;;;44.25;5.78;;;;;;;;;;5041818;28;20041;-78
2024/04/07 05:28:21;;;;;;;49.78;6.45;;;;;;;;;;5034760;28;20045;-78
2024/04/07 05:30:46;;;;;;;54.70;6.78;;;;;;;;;;5037228;28;20456;-78
2024/04/07 05:33:12;;;;;;;48.78;6.10;;;;;;;;;;5036668;28;20041;-77
2024/04/07 05:35:38;;;;;;;47.70;5.97;;;;;;;;;;5020562;28;20056;-78
2024/04/07 05:38:03;;;;;;;47.83;6.95;;;;;;;;;;5036817;28;20556;-78
2024/04/07 05:40:30;;;;;;;48.67;5.38;;;;;;;;;;5036961;28;20044;-78
2024/04/07 05:42:55;;;;;;;53.90;6.60;;;;;;;;;;5020644;28;20036;-78
2024/04/07 05:45:21;;;;;;;48.63;6.45;;;;;;;;;;5036461;28;20049;-78
2024/04/07 05:47:54;;;;;;;47.13;5.75;;;;;;;;;;5037254;28;20041;-76
2024/04/07 05:50:20;;;;;;;65.88;7.13;;;;;;;;;;5036517;28;20411;-77
2024/04/07 05:52:46;;;;;;;52.40;7.07;;;;;;;;;;5020362;28;20403;-76
2024/04/07 05:55:12;;;;;;;49.83;6.80;;;;;;;;;;5019811;28;20041;-77
2024/04/07 05:57:39;;;;;;;53.35;6.55;;;;;;;;;;5036493;28;20071;-76
2024/04/07 06:00:08;;;;;;;56.80;6.82;;;;;;;;;;5020087;28;20052;-76
2024/04/07 06:02:35;;;;;;;56.00;6.43;;;;;;;;;;5036400;28;20044;-77
2024/04/07 06:05:01;;;;;;;64.47;6.93;;;;;;;;;;5020151;28;20045;-76
2024/04/07 06:07:27;;;;;;;75.03;6.93;;;;;;;;;;5036033;28;20051;-76
2024/04/07 06:09:53;;;;;;;59.53;7.47;;;;;;;;;;5036293;28;20048;-78
2024/04/07 06:12:19;;;;;;;48.30;7.07;;;;;;;;;;5035389;28;20123;-77
2024/04/07 06:14:46;;;;;;;69.75;7.60;;;;;;;;;;5035603;28;20045;-77
2024/04/07 06:17:14;;;;;;;67.78;7.97;;;;;;;;;;5044526;28;20353;-76
2024/04/07 06:19:40;;;;;;;59.72;7.47;;;;;;;;;;5051015;28;20055;-77
2024/04/07 06:22:06;;;;;;;56.40;6.70;;;;;;;;;;5017670;28;20049;-75
2024/04/07 06:24:32;;;;;;;61.42;7.70;;;;;;;;;;5018052;28;20555;-76
2024/04/07 06:26:58;;;;;;;56.30;7.25;;;;;;;;;;5040453;28;20052;-77
2024/04/07 06:29:23;;;;;;;65.00;7.20;;;;;;;;;;5033999;28;20073;-77
2024/04/07 06:31:49;;;;;;;50.30;6.75;;;;;;;;;;5051204;28;20048;-77
2024/04/07 06:34:15;;;;;;;67.88;7.05;;;;;;;;;;5034030;28;20197;-76
2024/04/07 06:36:41;;;;;;;58.75;7.05;;;;;;;;;;5026363;28;20463;-76
2024/04/07 06:39:07;;;;;;;58.03;7.22;;;;;;;;;;5017316;28;20037;-77
2024/04/07 06:41:34;;;;;;;60.20;6.43;;;;;;;;;;5002541;28;20494;-76
2024/04/07 06:44:01;;;;;;;47.30;6.53;;;;;;;;;;5029441;28;20107;-77
2024/04/07 06:46:27;;;;;;;49.88;6.53;;;;;;;;;;5013783;28;20037;-77
2024/04/07 06:48:54;;;;;;;53.75;6.97;;;;;;;;;;5030514;28;20121;-77
2024/04/07 06:51:20;;;;;;;53.45;6.63;;;;;;;;;;5013833;28;20071;-77
2024/04/07 06:53:45;;;;;;;58.53;7.70;;;;;;;;;;5030862;28;20075;-77
2024/04/07 06:56:11;;;;;;;60.75;7.32;;;;;;;;;;5027921;28;20518;-76
2024/04/07 06:58:37;;;;;;;57.20;6.95;;;;;;;;;;5030969;28;20476;-76
2024/04/07 07:01:03;;;;;;;48.75;6.70;;;;;;;;;;5050618;28;20036;-77
2024/04/07 07:03:29;;;;;;;54.05;7.75;;;;;;;;;;5033663;28;20045;-76
2024/04/07 07:05:55;;;;;;;43.70;7.47;;;;;;;;;;5033666;28;20469;-77
2024/04/07 07:08:20;;;;;;;43.15;6.30;;;;;;;;;;5033584;28;20502;-77
2024/04/07 07:10:59;;;;;;;51.35;6.30;;;;;;;;;;5014346;28;20041;-76
2024/04/07 07:13:29;;;;;;;60.20;6.90;;;;;;;;;;5010567;28;20074;-77
2024/04/07 07:15:55;;;;;;;49.58;5.70;;;;;;;;;;5034842;28;20049;-77
2024/04/07 07:18:21;;;;;;;52.95;6.85;;;;;;;;;;5016537;28;20051;-76
2024/04/07 07:20:48;;;;;;;47.38;6.38;;;;;;;;;;5017466;28;20049;-76
2024/04/07 07:23:14;;;;;;;54.63;6.57;;;;;;;;;;5033082;28;20040;-76
2024/04/07 07:25:41;;;;;;;41.88;6.28;;;;;;;;;;5016481;28;20041;-76
2024/04/07 07:28:07;;;;;;;47.08;6.88;;;;;;;;;;5065546;28;20049;-76
2024/04/07 07:30:33;;;;;;;43.63;6.00;;;;;;;;;;5033419;28;20044;-76
2024/04/07 07:32:59;;;;;;;38.78;6.28;;;;;;;;;;5016433;28;20445;-76
2024/04/07 07:35:24;;;;;;;39.97;5.90;;;;;;;;;;5032439;28;24961;-76
2024/04/07 07:37:50;;;;;;;42.83;5.85;;;;;;;;;;5016675;28;20057;-76
2024/04/07 07:40:16;;;;;;;48.33;6.93;;;;;;;;;;5019804;28;20103;-77
2024/04/07 07:42:41;;;;;;;41.83;6.05;;;;;;;;;;5032844;28;20068;-77
2024/04/07 07:45:09;;;;;;;47.95;6.50;;;;;;;;;;5024522;28;20059;-77
2024/04/07 07:47:35;;;;;;;53.72;6.85;;;;;;;;;;5016396;28;20045;-76
2024/04/07 07:50:00;;;;;;;47.63;6.55;;;;;;;;;;5016725;28;20083;-77
2024/04/07 07:52:26;;;;;;;46.90;5.97;;;;;;;;;;5031596;28;20522;-77
2024/04/07 07:54:52;;;;;;;53.15;5.97;;;;;;;;;;5012637;28;20393;-77
2024/04/07 07:57:17;;;;;;;51.38;6.30;;;;;;;;;;5028232;28;20439;-76
2024/04/07 07:59:43;;;;;;;41.45;5.47;;;;;;;;;;5027471;28;20038;-77
2024/04/07 08:02:09;;;;;;;46.47;7.25;;;;;;;;;;5032248;28;20414;-76
2024/04/07 08:04:37;;;;;;;34.10;4.93;;;;;;;;;;5032209;28;20052;-76
2024/04/07 08:07:03;;;;;;;46.95;5.80;;;;;;;;;;5017200;28;20047;-76
2024/04/07 08:09:28;;;;;;;38.72;5.50;;;;;;;;;;5033925;28;20395;-77
2024/04/07 08:11:54;;;;;;;37.50;5.60;;;;;;;;;;5016781;28;20499;-77
2024/04/07 08:14:20;;;;;;;42.30;6.63;;;;;;;;;;5031838;28;20400;-76
2024/04/07 08:16:46;;;;;;;37.15;5.38;;;;;;;;;;5033398;28;20041;-76
2024/04/07 08:19:12;;;;;;;36.65;5.63;;;;;;;;;;5027697;28;20475;-76
2024/04/07 08:21:39;;;;;;;40.58;5.05;;;;;;;;;;5032899;28;20079;-77
2024/04/07 08:24:05;;;;;;;30.67;5.10;;;;;;;;;;5015928;28;20053;-77
2024/04/07 08:26:31;;;;;;;37.85;5.80;;;;;;;;;;5028974;28;20047;-77
2024/04/07 08:28:57;;;;;;;33.42;4.90;;;;;;;;;;5032605;28;20041;-76
2024/04/07 08:31:23;;;;;;;35.20;5.35;;;;;;;;;;5015897;28;20053;-76
2024/04/07 08:33:48;;;;;;;38.53;4.60;;;;;;;;;;5016159;28;20087;-77
2024/04/07 08:36:14;;;;;;;30.35;4.53;;;;;;;;;;5034701;28;20132;-76
2024/04/07 08:38:41;;;;;;;30.52;5.03;;;;;;;;;;5053060;28;20098;-76
2024/04/07 08:41:14;;;;;;;32.92;4.18;;;;;;;;;;5036146;28;20045;-76
2024/04/07 08:43:41;;;;;;;30.75;4.63;;;;;;;;;;5004135;28;20039;-76
2024/04/07 08:46:13;;;;;;;32.30;4.63;;;;;;;;;;5019250;28;20049;-76
2024/04/07 08:48:46;;;;;;;36.45;4.97;;;;;;;;;;5036631;28;20051;-77
2024/04/07 08:51:12;;;;;;;42.60;5.47;;;;;;;;;;5018767;28;20049;-75
2024/04/07 08:53:39;;;;;;;36.85;5.10;;;;;;;;;;5019668;28;20472;-76
2024/04/07 08:56:10;;;;;;;33.72;5.78;;;;;;;;;;5018732;28;20041;-76
2024/04/07 08:58:37;;;;;;;31.88;5.13;;;;;;;;;;5019725;28;20070;-77
2024/04/07 09:01:03;;;;;;;40.83;5.57;;;;;;;;;;5019192;28;20098;-76
2024/04/07 09:03:30;;;;;;;30.00;5.03;;;;;;;;;;5032322;28;20409;-76
2024/04/07 09:05:57;;;;;;;35.97;6.57;;;;;;;;;;5032854;28;20033;-77
2024/04/07 09:08:23;;;;;;;38.03;5.72;;;;;;;;;;5018842;28;20055;-77
2024/04/07 09:10:49;;;;;;;35.58;4.93;;;;;;;;;;5040047;28;20045;-76
2024/04/07 09:13:16;;;;;;;34.60;5.07;;;;;;;;;;5044173;28;20403;-77
2024/04/07 09:15:43;;;;;;;37.80;6.15;;;;;;;;;;5035459;28;20490;-77
2024/04/07 09:18:12;;;;;;;31.40;5.28;;;;;;;;;;5035477;28;20441;-77
2024/04/07 09:20:38;;;;;;;36.17;5.53;;;;;;;;;;5035385;28;20049;-76
2024/04/07 09:23:04;;;;;;;38.38;5.13;;;;;;;;;;5035806;28;20063;-75
2024/04/07 09:25:31;;;;;;;36.75;5.82;;;;;;;;;;5035582;28;20052;-75
2024/04/07 09:27:58;;;;;;;39.58;4.53;;;;;;;;;;5035256;28;20044;-76
2024/04/07 09:30:24;;;;;;;27.27;4.32;;;;;;;;;;4999120;28;20064;-77
2024/04/07 09:32:50;;;;;;;31.15;5.32;;;;;;;;;;5027261;28;20307;-77
2024/04/07 09:35:16;;;;;;;29.50;5.18;;;;;;;;;;5034954;28;20041;-77
2024/04/07 09:37:43;;;;;;;30.00;5.43;;;;;;;;;;5052199;28;20434;-76
2024/04/07 09:40:09;;;;;;;33.60;6.43;;;;;;;;;;5018249;28;20102;-75
2024/04/07 09:42:39;;;;;;;33.17;5.20;;;;;;;;;;5035032;28;20037;-76
2024/04/07 09:45:06;;;;;;;28.08;4.30;;;;;;;;;;5018205;28;20039;-75
2024/04/07 09:47:34;;;;;;;32.17;4.65;;;;;;;;;;5017919;28;20071;-76
2024/04/07 09:50:29;;;;;;;31.45;5.28;;;;;;;;;;5018802;28;20041;-77
2024/04/07 09:53:07;;;;;;;35.15;5.35;;;;;;;;;;5029475;28;20045;-77
2024/04/07 09:55:36;;;;;;;31.17;5.82;;;;;;;;;;5037325;28;20037;-76
2024/04/07 09:58:03;;;;;;;33.28;5.30;;;;;;;;;;5019620;28;20041;-78
2024/04/07 10:00:30;;;;;;;32.75;4.85;;;;;;;;;;5034191;28;20053;-79
2024/04/07 10:02:59;;;;;;;32.72;5.57;;;;;;;;;;5002203;28;20045;-77
2024/04/07 10:05:24;;;;;;;41.67;5.72;;;;;;;;;;5034328;28;20045;-80
2024/04/07 10:07:51;;;;;;;30.00;4.05;;;;;;;;;;5060251;28;20037;-80
2024/04/07 10:10:21;;;;;;;36.20;5.97;;;;;;;;;;5018206;28;20052;-79
2024/04/07 10:12:47;;;;;;;33.10;4.78;;;;;;;;;;5042899;28;20057;-77
2024/04/07 10:15:21;;;;;;;35.55;4.70;;;;;;;;;;5017447;28;20200;-76
2024/04/07 10:17:47;;;;;;;33.33;5.25;;;;;;;;;;5026385;28;20045;-75
2024/04/07 10:20:14;;;;;;;35.50;5.50;;;;;;;;;;5033163;28;20143;-75
2024/04/07 10:22:43;;;;;;;35.15;4.95;;;;;;;;;;5032515;28;20400;-76
2024/04/07 10:25:10;;;;;;;29.40;5.18;;;;;;;;;;5037490;28;20049;-76
2024/04/07 10:27:45;;;;;;;33.05;4.47;;;;;;;;;;5000698;28;20053;-76
2024/04/07 10:30:14;;;;;;;26.25;4.75;;;;;;;;;;5030365;28;20479;-76
2024/04/07 10:32:40;;;;;;;40.70;5.53;;;;;;;;;;5032117;28;20045;-76
2024/04/07 10:35:08;;;;;;;27.38;4.75;;;;;;;;;;5026940;28;20045;-76
2024/04/07 10:37:37;;;;;;;36.20;4.80;;;;;;;;;;5015809;28;20506;-76
2024/04/07 10:40:07;;;;;;;;;;;;;;;;;;5034460;28;20127;-76
2024/04/07 10:42:37;;;;;;;31.05;4.75;;;;;;;;;;5033965;28;19927;-76
2024/04/07 10:45:05;;;;;;;36.00;4.93;;;;;;;;;;5034104;28;20086;-76
2024/04/07 10:47:31;;;;;;;34.28;4.82;;;;;;;;;;5031966;28;20041;-76
2024/04/07 10:49:58;;;;;;;38.65;5.38;;;;;;;;;;5032399;28;20547;-76
2024/04/07 10:52:26;;;;;;;40.58;5.65;;;;;;;;;;5028295;28;20129;-75
2024/04/07 10:54:59;;;;;;;32.63;5.47;;;;;;;;;;5010804;28;20041;-78
2024/04/07 10:57:25;;;;;;;36.95;6.20;;;;;;;;;;5016754;28;20041;-76
2024/04/07 10:59:51;;;;;;;42.70;5.82;;;;;;;;;;4996544;28;20369;-79
2024/04/07 11:02:17;;;;;;;42.38;5.68;;;;;;;;;;5042096;28;20051;-75
2024/04/07 11:04:43;;;;;;;37.95;5.45;;;;;;;;;;5033562;28;20041;-75
2024/04/07 11:07:09;;;;;;;47.80;5.25;;;;;;;;;;5033510;28;20045;-76
2024/04/07 11:09:36;;;;;;;41.15;6.20;;;;;;;;;;4993236;28;20053;-77
2024/04/07 11:12:03;;;;;;;43.15;6.03;;;;;;;;;;5012907;28;20364;-76
2024/04/07 11:14:32;;;;;;;37.40;5.68;;;;;;;;;;5033011;28;20040;-75
2024/04/07 11:17:03;;;;;;;48.40;6.35;;;;;;;;;;5033380;28;20479;-76
2024/04/07 11:19:34;;;;;;;33.97;6.55;;;;;;;;;;5016901;28;20051;-75
2024/04/07 11:22:01;;;;;;;40.65;6.25;;;;;;;;;;5031726;28;20501;-76
2024/04/07 11:24:27;;;;;;;37.55;5.15;;;;;;;;;;5024807;28;20041;-76
2024/04/07 11:26:54;;;;;;;37.08;5.55;;;;;;;;;;5030103;28;20076;-76
2024/04/07 11:29:19;;;;;;;36.15;4.88;;;;;;;;;;5015807;28;20044;-76
2024/04/07 11:31:53;;;;;;;43.97;5.70;;;;;;;;;;5033149;28;20438;-76
2024/04/07 11:34:20;;;;;;;42.15;6.03;;;;;;;;;;5030082;28;20041;-76
2024/04/07 11:36:48;;;;;;;38.10;5.55;;;;;;;;;;4996824;28;20391;-76
2024/04/07 11:39:15;;;;;;;44.47;5.88;;;;;;;;;;5024254;28;20044;-76
2024/04/07 11:41:41;;;;;;;32.13;5.32;;;;;;;;;;5013906;28;20503;-76
2024/04/07 11:44:08;;;;;;;34.00;5.88;;;;;;;;;;5032677;28;20041;-76
2024/04/07 11:46:34;;;;;;;43.08;5.82;;;;;;;;;;5016731;28;20041;-76
2024/04/07 11:49:00;;;;;;;37.92;5.63;;;;;;;;;;5016539;28;20102;-78
2024/04/07 11:51:26;;;;;;;35.47;5.65;;;;;;;;;;5011783;28;20396;-76
2024/04/07 11:53:54;;;;;;;35.03;5.30;;;;;;;;;;5013147;28;20072;-77
2024/04/07 11:56:21;;;;;;;21.13;4.38;;;;;;;;;;5007930;28;20037;-76
2024/04/07 11:58:47;;;;;;;32.22;5.22;;;;;;;;;;5013416;28;20131;-76
2024/04/07 12:01:13;;;;;;;28.90;5.03;;;;;;;;;;5015915;28;20437;-76
2024/04/07 12:03:39;;;;;;;32.78;4.63;;;;;;;;;;5032884;28;20095;-76
2024/04/07 12:06:05;;;;;;;37.85;5.07;;;;;;;;;;5016124;28;20045;-75
2024/04/07 12:08:30;;;;;;;31.85;5.15;;;;;;;;;;5033086;28;20048;-76
2024/04/07 12:10:56;;;;;;;32.85;5.40;;;;;;;;;;5018952;28;20037;-76
2024/04/07 12:13:22;;;;;;;35.65;6.00;;;;;;;;;;5036301;28;20045;-76
2024/04/07 12:15:48;;;;;;;36.03;5.50;;;;;;;;;;5036788;28;20399;-76
2024/04/07 12:18:13;;;;;;;41.40;5.95;;;;;;;;;;5029747;28;20049;-76
2024/04/07 12:20:39;;;;;;;35.05;5.80;;;;;;;;;;5034794;28;20041;-76
2024/04/07 12:23:05;;;;;;;33.85;5.90;;;;;;;;;;5019860;28;20053;-78
2024/04/07 12:25:31;;;;;;;44.40;6.18;;;;;;;;;;5022413;28;20146;-76
2024/04/07 12:27:57;;;;;;;35.78;5.28;;;;;;;;;;5020178;28;20075;-76
2024/04/07 12:30:23;;;;;;;36.28;5.50;;;;;;;;;;5036175;28;20425;-77
2024/04/07 12:32:49;;;;;;;38.38;6.22;;;;;;;;;;5013526;28;20041;-76
2024/04/07 12:35:14;;;;;;;34.40;5.25;;;;;;;;;;5027597;28;20445;-76
2024/04/07 12:37:40;;;;;;;32.33;5.60;;;;;;;;;;5028815;28;20045;-76
2024/04/07 12:40:07;;;;;;;41.22;6.07;;;;;;;;;;5044751;28;20069;-75
2024/04/07 12:42:33;;;;;;;43.05;5.78;;;;;;;;;;5020099;28;20049;-76
2024/04/07 12:44:58;;;;;;;34.85;5.50;;;;;;;;;;5036404;28;20033;-76
2024/04/07 12:47:24;;;;;;;32.05;5.50;;;;;;;;;;5019548;28;20041;-76
2024/04/07 12:49:51;;;;;;;32.22;5.60;;;;;;;;;;5036531;28;20045;-76
2024/04/07 12:52:16;;;;;;;43.28;7.13;;;;;;;;;;5035744;28;20060;-76
2024/04/07 12:54:42;;;;;;;42.72;6.97;;;;;;;;;;5019713;28;20471;-76
2024/04/07 12:57:09;;;;;;;49.83;6.50;;;;;;;;;;5035839;28;20457;-76
2024/04/07 12:59:34;;;;;;;40.55;6.28;;;;;;;;;;5021946;28;20045;-76
2024/04/07 13:02:00;;;;;;;44.00;5.38;;;;;;;;;;5052680;28;20495;-75
2024/04/07 13:04:26;;;;;;;24.90;5.25;;;;;;;;;;5019195;28;20166;-76
2024/04/07 13:06:52;;;;;;;31.75;5.00;;;;;;;;;;5036167;28;20090;-76
2024/04/07 13:09:20;;;;;;;26.90;5.35;;;;;;;;;;5035423;28;20135;-76
2024/04/07 13:11:46;;;;;;;39.35;5.68;;;;;;;;;;5019546;28;20055;-76
2024/04/07 13:14:12;;;;;;;31.25;5.38;;;;;;;;;;5035393;28;20041;-76
2024/04/07 13:16:39;;;;;;;33.55;4.60;;;;;;;;;;5019318;28;20373;-75
2024/04/07 13:19:05;;;;;;;26.27;3.90;;;;;;;;;;5018740;28;20408;-75
2024/04/07 13:21:31;;;;;;;29.55;4.00;;;;;;;;;;5069049;28;20048;-76
2024/04/07 13:23:56;;;;;;;28.65;4.95;;;;;;;;;;5019609;28;20116;-75
2024/04/07 13:26:22;;;;;;;29.40;5.25;;;;;;;;;;5035167;28;20414;-76
2024/04/07 13:28:48;;;;;;;33.50;5.30;;;;;;;;;;4999286;28;20140;-76
2024/04/07 13:31:13;;;;;;;34.47;5.32;;;;;;;;;;4988088;28;20491;-76
2024/04/07 13:33:39;;;;;;;31.60;5.00;;;;;;;;;;5024961;28;20038;-75
2024/04/07 13:36:06;;;;;;;37.40;4.97;;;;;;;;;;5005064;28;20060;-76
2024/04/07 13:38:32;;;;;;;38.10;5.30;;;;;;;;;;5018829;28;20045;-76
2024/04/07 13:40:58;;;;;;;30.25;5.18;;;;;;;;;;5022355;28;20364;-76
2024/04/07 13:43:24;;;;;;;27.98;4.95;;;;;;;;;;5034956;28;20144;-78
2024/04/07 13:45:50;;;;;;;39.10;6.38;;;;;;;;;;5021557;28;20517;-76
2024/04/07 13:48:16;;;;;;;31.08;4.80;;;;;;;;;;5033370;28;20090;-76
2024/04/07 13:50:42;;;;;;;36.55;6.18;;;;;;;;;;5018809;28;20041;-76
2024/04/07 13:53:09;;;;;;;31.08;5.30;;;;;;;;;;5034550;28;20045;-76
2024/04/07 13:55:36;;;;;;;26.35;4.95;;;;;;;;;;5018347;28;20036;-76
2024/04/07 13:58:01;;;;;;;28.23;4.40;;;;;;;;;;5034755;28;20041;-76
2024/04/07 14:00:27;;;;;;;42.58;5.32;;;;;;;;;;5018038;28;20115;-76
2024/04/07 14:02:53;;;;;;;36.97;4.68;;;;;;;;;;5033339;28;20403;-78
2024/04/07 14:05:19;;;;;;;23.77;4.55;;;;;;;;;;5017049;28;20052;-78
2024/04/07 14:07:45;;;;;;;28.15;4.30;;;;;;;;;;5013866;28;20095;-76
2024/04/07 14:10:10;;;;;;;26.95;4.38;;;;;;;;;;5034579;28;20052;-78
2024/04/07 14:12:36;;;;;;;20.92;4.45;;;;;;;;;;5017498;28;20037;-76
2024/04/07 14:15:03;;;;;;;33.15;5.25;;;;;;;;;;5034295;28;20044;-76
2024/04/07 14:17:29;;;;;;;32.08;5.07;;;;;;;;;;5033883;28;20045;-76
2024/04/07 14:19:55;;;;;;;28.52;4.53;;;;;;;;;;5034710;28;20033;-76
2024/04/07 14:22:20;;;;;;;35.10;5.53;;;;;;;;;;5016524;28;20365;-76
2024/04/07 14:24:46;;;;;;;36.13;4.90;;;;;;;;;;5033575;28;20360;-75
2024/04/07 14:27:12;;;;;;;31.52;4.43;;;;;;;;;;5025926;28;20040;-76
2024/04/07 14:29:38;;;;;;;31.00;4.57;;;;;;;;;;5018000;28;20045;-76